Skyline Lakes, New Jersey
Current Conditions -  °F | °C
As of 12:53 PM on Tuesday 21 Oct 2014 (Local Time) from KCDW Reporting Station
Overcast Overcast  
Wind Chill: 62°   Ceiling: 6500
Heat Index: 62°   Visibility: 10mi
Dew Point: 48°   Wind: 6mph
Humidity: 60%   Direction: 80°E
Pressure: 29.86"   Gusts: NA
Location:  41.1036°N, 74.2801°W
Report Text: KCDW 211653Z 08005KT 10SM FEW048 BKN065 OVC080 17/09 A2986 RMK AO2 SLP117 T01670089
Loading
Personal Weather Stations






























Interactive Weather Map
Tropical Storm Tracking
New forecast layout! Learn more

10-Day Weather Forecast

Advertisements
Track Severe Weather on mobile